Domov               UVHVVR             MKGP            O straneh              
ZDRAVSTVENO VARSTVO RASTLIN
  MREŽA AGROMET. POSTAJ
 ► PROGNOSTIČNA OBVESTILA
AGROMETEOROLOŠKI PODATKI -
ARSO
OBVLADOVANJE TVEGANJ ZARADI
NEUGODNIH VREMENSKIH RAZMER
  ► NARAVNE NESREČE
  ► SUŠA/MOČA
  ► NAMAKANJE
  ► ŽLED (gozdarstvo)
KARTOGRAFSKI PRIKAZI
SPLETNE POVEZAVE
PROJEKTI IN PUBLIKACIJE

AGROMETEOROLOŠKA MREŽA: VREMENSKE POSTAJE IN FENOLOŠKA OPAZOVANJA

Pregled podatkov za lokacijo Resje, meteorološka postaja 39326

Pregled senzorjev na lokaciji

ID Ime Zadnja
vrednost
Datum
zadnje
spremembe
Tip
senzorja
4304 Omočenost lista (U) 0 U 20.6.2018 16:00 A730WET
2437 Padavine (mm) 0 mm 20.6.2018 16:00 Rain-O-Matic
2439 Relativna vlaga 2 m (% RH) 43,69 % RH 20.6.2018 16:00 50YA
2438 Temperatura 2 m (°C) 27,16 °C 20.6.2018 16:00 50YA
4269 Smer vetra (°) 272,88 ° 20.6.2018 16:00 Generic 0 - 360
4268 Hitrost vetra (km/h) 4,15 km/h 20.6.2018 16:00 Generic 200 km/h

Pregled podatkov zadnjih 24 ur

Zap.
št.
Datum in čas Resje
Omočenost
lista
Padavine Relativna
vlaga
2
m
Temperatura
2
m
Smer
vetra
Hitrost
vetra
1 20.6.2018 17:00
2 20.6.2018 16:30
3 20.6.2018 16:00
4 20.6.2018 15:30
5 20.6.2018 15:00 0 0 43,7 27,2 272,9 4,2
6 20.6.2018 14:30 0 0 43,9 27,3 267,1 5
7 20.6.2018 14:00 0 0 43,3 27,1 276 3,2
8 20.6.2018 13:30 0 0 43,1 27,3 263,4 6,4
9 20.6.2018 13:00 0 0 44,8 26,8 296,4 5,1
10 20.6.2018 12:30 0 0 44,5 26,5 293,6 3,9
11 20.6.2018 12:00 0 0 45,2 26,3 263,2 7,6
12 20.6.2018 11:30 0 0 45,8 25,8 279,2 4,7
13 20.6.2018 11:00 0 0 47,3 25 267,6 5,6
14 20.6.2018 10:30 0 0 48,6 24,9 270,4 4,9
15 20.6.2018 10:00 0 0 50,1 24,5 266,1 2,4
16 20.6.2018 09:30 0 0 52,5 23,6 270,1 0,9
17 20.6.2018 09:00 0 0 54,4 22,8 261,1 3,9
18 20.6.2018 08:30 0 0 58,7 22,2 270,2 2,2
19 20.6.2018 08:00 0 0 59,6 21,8 270,4 1
20 20.6.2018 07:30 0 0 63,8 20,5 304,5 0,7
21 20.6.2018 07:00 0 0 68,1 19,3 301,7 0
22 20.6.2018 06:30 0 0 68,7 18,4 302,1 0
23 20.6.2018 06:00 0 0 79,8 15,6 302,1 0,4
24 20.6.2018 05:30 1 0 86,1 14,2 302,4 2,2
25 20.6.2018 05:00 0 0 92,6 12,9 302,4 0
26 20.6.2018 04:30 0 0 90,7 13,1 306,3 0
27 20.6.2018 04:00 0 0 89 13,7 306 0,4
28 20.6.2018 03:30 0 0 89,2 13,6 306,2 0
29 20.6.2018 03:00 0 0 80,7 15,3 305,9 1,2
30 20.6.2018 02:30 0 0 81,5 15,3 305,9 3,2
31 20.6.2018 02:00 0 0 79,6 15,8 305,9 3
32 20.6.2018 01:30 0 0 80,9 15,8 303,7 2,3
33 20.6.2018 01:00 1 0 83,7 15,4 296,1 0,7
34 20.6.2018 00:30 1 0 87,2 14,9 296,1 0
35 20.6.2018 00:00 0 0 87,4 15 296,1 0
36 19.6.2018 23:30 0 0 85,8 15,7 296,1 0
37 19.6.2018 23:00 0 0 79,6 16,9 296,1 0
38 19.6.2018 22:30 0 0 72,3 18,2 296,1 0
39 19.6.2018 22:00 0 0 69,4 18,9 299,3 0
40 19.6.2018 21:30 0 0 66,2 19,6 299,3 0
41 19.6.2018 21:00 0 0 73,3 19,3 295,4 0
42 19.6.2018 20:30 0 0 69,6 19,9 295,4 0
43 19.6.2018 20:00 0 0 64,7 20,9 295,7 0
44 19.6.2018 19:30 0 0 52,8 23,4 279,8 0
45 19.6.2018 19:00 0 0 47,4 24,4 279,4 1,3
46 19.6.2018 18:30 0 0 44,7 25,4 281 2,5
47 19.6.2018 18:00 0 0 43 25,8 268,4 4,7
48 19.6.2018 17:30 0 0 40,6 26,6 269,7 3,1
© 2011 Ministrstvo za kmetijstvo, gozdarstvo in prehrano. Vse pravice pridržane.